Brighton, Tennessee
Current Conditions -  °F | °C
As of 8:50 AM on Thursday 18 Dec 2014 (Local Time) from KNQA Reporting Station
Haze Haze  
Wind Chill: 37°   Ceiling: 4400
Heat Index: 37°   Visibility: 3mi
Dew Point: 37°   Wind: 0mph
Humidity: 100%   Direction: NA
Pressure: 30.26"   Gusts: NA
Location:  35.48°N, 89.73°W
Report Text: KNQA 181450Z 00000KT 3SM BR SCT008 OVC044 03/03 A3026
Loading
Personal Weather Stations






























Interactive Weather Map New forecast layout! Learn more

10-Day Weather Forecast

Advertisements
Track Severe Weather on mobile